createdAt,value
2022-09-12T00:02:08.436Z,14.84
2022-09-12T00:04:37.993Z,14.81
2022-09-12T00:07:07.560Z,14.68
2022-09-12T00:09:37.029Z,14.65
2022-09-12T00:12:07.216Z,14.59
2022-09-12T00:14:39.166Z,14.59
2022-09-12T00:17:08.616Z,14.58
2022-09-12T00:19:38.109Z,14.55
2022-09-12T00:22:07.805Z,14.49
2022-09-12T00:24:37.269Z,14.48
2022-09-12T00:27:06.988Z,14.45
2022-09-12T00:29:39.017Z,14.44
2022-09-12T00:32:08.447Z,14.45
2022-09-12T00:34:38.575Z,14.42
2022-09-12T00:37:08.029Z,14.36
2022-09-12T00:39:37.466Z,14.32
2022-09-12T00:42:07.036Z,14.33
2022-09-12T00:44:51.910Z,14.32
2022-09-12T00:47:26.691Z,14.34
2022-09-12T00:50:02.416Z,14.31
2022-09-12T00:52:36.711Z,14.26
2022-09-12T00:55:10.823Z,14.24
2022-09-12T00:57:47.325Z,14.19
2022-09-12T01:00:22.159Z,14.12
2022-09-12T01:02:56.373Z,14.09
2022-09-12T01:05:27.672Z,14.05
2022-09-12T01:07:59.951Z,14.08
2022-09-12T01:10:29.406Z,14.00
2022-09-12T01:12:59.147Z,14.03
2022-09-12T01:15:31.127Z,14.05
2022-09-12T01:18:12.826Z,14.01
2022-09-12T01:20:54.822Z,14.02
2022-09-12T01:23:57.372Z,14.08
2022-09-12T01:26:56.136Z,13.98
2022-09-12T01:30:02.153Z,13.74
2022-09-12T01:32:46.356Z,13.73
2022-09-12T01:35:24.249Z,13.64
2022-09-12T01:38:01.278Z,13.60
2022-09-12T01:40:36.972Z,13.56
2022-09-12T01:55:57.125Z,13.41
2022-09-12T01:58:30.460Z,13.39
2022-09-12T02:01:06.516Z,13.39
2022-09-12T02:03:44.739Z,13.40
2022-09-12T02:06:21.481Z,13.36
2022-09-12T02:08:55.756Z,13.35
2022-09-12T02:11:27.892Z,13.40
2022-09-12T02:14:01.123Z,13.40
2022-09-12T02:16:37.398Z,13.36
2022-09-12T02:19:13.189Z,13.34
2022-09-12T02:21:48.776Z,13.29
2022-09-12T02:24:20.953Z,13.32
2022-09-12T02:26:58.129Z,13.27
2022-09-12T02:29:27.596Z,13.25
2022-09-12T02:32:01.232Z,13.23
2022-09-12T02:34:41.383Z,13.20
2022-09-12T02:37:21.405Z,13.17
2022-09-12T02:39:51.120Z,13.13
2022-09-12T02:42:23.704Z,13.16
2022-09-12T02:44:55.569Z,13.20
2022-09-12T02:47:30.600Z,13.17
2022-09-12T02:50:01.725Z,13.18
2022-09-12T02:52:32.252Z,13.06
2022-09-12T02:55:02.250Z,13.02
2022-09-12T02:57:34.548Z,13.02
2022-09-12T03:00:04.694Z,13.02
2022-09-12T03:02:47.407Z,12.98
2022-09-12T03:05:27.677Z,12.98
2022-09-12T03:08:14.899Z,12.85
2022-09-12T03:11:09.274Z,12.80
2022-09-12T03:13:53.584Z,12.81
2022-09-12T03:16:34.289Z,12.86
2022-09-12T03:19:09.177Z,12.77
2022-09-12T03:21:53.415Z,12.78
2022-09-12T03:24:29.284Z,12.79
2022-09-12T03:27:04.645Z,12.68
2022-09-12T03:29:37.084Z,12.70
2022-09-12T03:32:07.542Z,12.63
2022-09-12T03:34:37.320Z,12.67
2022-09-12T03:37:07.135Z,12.72
2022-09-12T03:39:36.825Z,12.68
2022-09-12T03:42:06.977Z,12.66
2022-09-12T03:44:38.951Z,12.64
2022-09-12T03:47:11.206Z,12.68
2022-09-12T03:49:40.963Z,12.71
2022-09-12T03:52:10.973Z,12.67
2022-09-12T03:54:40.452Z,12.68
2022-09-12T03:57:09.911Z,12.66
2022-09-12T03:59:41.953Z,12.72
2022-09-12T04:02:13.658Z,12.75
2022-09-12T04:04:44.742Z,12.67
2022-09-12T04:07:14.447Z,12.65
2022-09-12T04:09:43.835Z,12.67
2022-09-12T04:12:14.074Z,12.68
2022-09-12T04:14:46.355Z,12.66
2022-09-12T04:17:16.967Z,12.61
2022-09-12T04:19:46.342Z,12.63
2022-09-12T04:22:17.407Z,12.61
2022-09-12T04:24:46.812Z,12.58
2022-09-12T04:27:16.312Z,12.57
2022-09-12T04:29:48.357Z,12.51
2022-09-12T04:32:18.283Z,12.49
2022-09-12T04:34:47.725Z,12.52
2022-09-12T04:37:17.104Z,12.47
2022-09-12T04:39:48.569Z,12.45
2022-09-12T04:42:18.040Z,12.43
2022-09-12T04:44:51.200Z,12.41
2022-09-12T04:47:20.625Z,12.42
2022-09-12T04:49:51.707Z,12.39
2022-09-12T04:52:21.145Z,12.36
2022-09-12T04:54:50.709Z,12.42
2022-09-12T04:57:20.136Z,12.43
2022-09-12T04:59:52.149Z,12.46
2022-09-12T05:02:21.641Z,12.37
2022-09-12T05:04:51.619Z,12.35
2022-09-12T05:07:21.018Z,12.38
2022-09-12T05:09:50.391Z,12.41
2022-09-12T05:12:19.796Z,12.36
2022-09-12T05:14:51.899Z,12.45
2022-09-12T05:17:21.294Z,12.48
2022-09-12T05:19:54.533Z,12.54
2022-09-12T05:22:23.892Z,12.56
2022-09-12T05:24:53.323Z,12.61
2022-09-12T05:27:22.822Z,12.73
2022-09-12T05:29:54.805Z,12.77
2022-09-12T05:32:24.220Z,12.77
2022-09-12T05:34:53.663Z,12.84
2022-09-12T05:37:23.250Z,12.93
2022-09-12T05:39:52.966Z,13.12
2022-09-12T05:42:23.524Z,13.34
2022-09-12T05:44:55.476Z,13.51
2022-09-12T05:47:25.026Z,13.67
2022-09-12T05:49:54.926Z,13.69
2022-09-12T05:52:24.283Z,13.84
2022-09-12T05:54:53.635Z,14.02
2022-09-12T05:57:23.015Z,14.18
2022-09-12T05:59:54.996Z,14.31
2022-09-12T06:02:24.873Z,14.27
2022-09-12T06:04:54.305Z,14.57
2022-09-12T06:07:23.677Z,14.85
2022-09-12T06:09:53.557Z,14.63
2022-09-12T06:12:22.974Z,14.92
2022-09-12T06:14:55.238Z,15.18
2022-09-12T06:17:24.979Z,15.31
2022-09-12T06:19:55.367Z,15.28
2022-09-12T06:22:24.747Z,15.39
2022-09-12T06:24:57.866Z,15.46
2022-09-12T06:27:27.485Z,15.78
2022-09-12T06:29:59.580Z,15.98
2022-09-12T06:32:28.948Z,16.00
2022-09-12T06:34:58.796Z,16.30
2022-09-12T06:37:28.535Z,16.21
2022-09-12T06:39:58.055Z,16.50
2022-09-12T06:42:27.509Z,16.45
2022-09-12T06:44:59.533Z,16.70
2022-09-12T06:47:28.903Z,16.85
2022-09-12T06:49:58.340Z,16.95
2022-09-12T06:52:29.396Z,17.21
2022-09-12T06:54:58.807Z,17.38
2022-09-12T06:57:30.523Z,17.61
2022-09-12T07:00:02.527Z,17.80
2022-09-12T07:02:31.967Z,18.10
2022-09-12T07:05:01.348Z,18.42
2022-09-12T07:07:34.351Z,18.76
2022-09-12T07:10:03.747Z,18.63
2022-09-12T07:12:33.094Z,19.07
2022-09-12T07:15:05.098Z,19.12
2022-09-12T07:17:34.760Z,19.32
2022-09-12T07:20:04.581Z,19.26
2022-09-12T07:22:34.001Z,19.05
2022-09-12T07:25:03.340Z,19.02
2022-09-12T07:27:32.731Z,19.62
2022-09-12T07:30:04.690Z,19.56
2022-09-12T07:32:34.169Z,19.71
2022-09-12T07:35:03.601Z,19.84
2022-09-12T07:37:33.092Z,19.99
2022-09-12T07:40:02.664Z,20.58
2022-09-12T07:42:32.297Z,20.72
2022-09-12T07:45:01.797Z,21.03
2022-09-12T07:47:33.774Z,21.18
2022-09-12T07:50:03.190Z,21.38
2022-09-12T07:52:32.669Z,21.27
2022-09-12T07:55:02.590Z,21.27
2022-09-12T07:57:31.947Z,21.50
2022-09-12T08:00:01.597Z,21.80
2022-09-12T08:02:33.830Z,22.07
2022-09-12T08:05:03.280Z,22.75
2022-09-12T08:07:34.181Z,22.37
2022-09-12T08:10:03.686Z,23.27
2022-09-12T08:12:34.635Z,23.25
2022-09-12T08:15:04.276Z,23.29
2022-09-12T08:17:36.316Z,22.79
2022-09-12T08:20:06.504Z,23.18
2022-09-12T08:22:35.915Z,24.17
2022-09-12T08:25:05.348Z,24.66
2022-09-12T08:27:34.847Z,24.91
2022-09-12T08:30:04.294Z,25.85
2022-09-12T08:32:37.264Z,26.04
2022-09-12T08:35:08.172Z,26.03
2022-09-12T08:37:37.545Z,26.30
2022-09-12T08:40:09.396Z,25.83
2022-09-12T08:42:54.882Z,27.66
2022-09-12T08:45:31.388Z,27.46
2022-09-12T08:48:07.379Z,26.85
2022-09-12T08:50:36.779Z,28.25
2022-09-12T08:53:14.247Z,27.77
2022-09-12T08:55:46.888Z,26.50
2022-09-12T08:58:20.293Z,26.26
2022-09-12T09:00:59.441Z,27.10
2022-09-12T09:03:58.156Z,27.99
2022-09-12T09:06:42.679Z,28.56
2022-09-12T09:09:19.682Z,28.99
2022-09-12T09:12:00.682Z,28.41
2022-09-12T09:15:09.328Z,28.15
2022-09-12T09:17:44.086Z,28.15
2022-09-12T09:20:27.882Z,28.73
2022-09-12T09:23:03.309Z,29.76
2022-09-12T09:25:45.805Z,29.07
2022-09-12T09:28:20.289Z,29.72
2022-09-12T09:30:50.137Z,29.46
2022-09-12T09:33:25.114Z,29.12
2022-09-12T09:36:05.569Z,29.06
2022-09-12T09:38:47.383Z,29.53
2022-09-12T09:41:32.132Z,29.46
2022-09-12T09:44:02.952Z,28.15
2022-09-12T09:46:32.820Z,28.53
2022-09-12T09:49:04.541Z,28.51
2022-09-12T09:51:41.838Z,28.89
2022-09-12T09:54:20.077Z,30.13
2022-09-12T09:56:50.122Z,28.86
2022-09-12T09:59:21.247Z,29.00
2022-09-12T10:01:54.962Z,28.68
2022-09-12T10:04:26.247Z,27.58
2022-09-12T10:07:00.972Z,27.99
2022-09-12T10:09:33.113Z,28.92
2022-09-12T10:12:04.903Z,28.32
2022-09-12T10:14:40.886Z,29.02
2022-09-12T10:17:33.138Z,30.19
2022-09-12T10:20:20.897Z,29.53
2022-09-12T10:22:53.875Z,30.05
2022-09-12T10:25:27.544Z,31.02
2022-09-12T10:27:59.078Z,30.66
2022-09-12T10:30:30.395Z,29.96
2022-09-12T10:33:08.568Z,29.80
2022-09-12T10:35:48.447Z,28.24
2022-09-12T10:38:25.595Z,26.72
2022-09-12T10:41:01.321Z,28.10
2022-09-12T10:43:33.708Z,28.24
2022-09-12T10:46:25.139Z,27.90
2022-09-12T10:49:14.806Z,29.28
2022-09-12T10:51:44.292Z,29.15
2022-09-12T10:54:19.772Z,28.11
2022-09-12T10:56:59.134Z,27.92
2022-09-12T10:59:37.422Z,27.67
2022-09-12T11:02:17.626Z,27.13
2022-09-12T11:04:59.497Z,27.60
2022-09-12T11:07:40.719Z,27.14
2022-09-12T11:10:27.187Z,26.31
2022-09-12T11:13:09.041Z,26.46
2022-09-12T11:15:53.023Z,27.38
2022-09-12T11:18:39.114Z,28.16
2022-09-12T11:21:32.925Z,28.95
2022-09-12T11:24:23.932Z,28.17
2022-09-12T11:27:20.734Z,28.03
2022-09-12T11:29:57.130Z,28.25
2022-09-12T11:32:43.102Z,27.77
2022-09-12T11:35:21.907Z,29.09
2022-09-12T11:38:15.755Z,29.61
2022-09-12T11:40:49.923Z,27.95
2022-09-12T11:43:32.141Z,28.33
2022-09-12T11:46:09.261Z,27.42
2022-09-12T11:48:47.651Z,27.21
2022-09-12T11:51:22.581Z,27.50
2022-09-12T11:54:04.848Z,27.98
2022-09-12T11:56:34.525Z,27.03
2022-09-12T11:59:15.552Z,28.11
2022-09-12T12:01:48.902Z,26.83
2022-09-12T12:04:23.334Z,26.25
2022-09-12T12:06:58.930Z,27.27
2022-09-12T12:09:28.316Z,27.41
2022-09-12T12:12:00.287Z,28.12
2022-09-12T12:14:39.750Z,27.64
2022-09-12T12:17:17.307Z,27.90
2022-09-12T12:19:51.020Z,27.79
2022-09-12T12:22:23.073Z,28.18
2022-09-12T12:25:05.971Z,27.78
2022-09-12T12:27:56.617Z,26.37
2022-09-12T12:31:05.804Z,26.18
2022-09-12T12:34:17.272Z,27.13
2022-09-12T12:36:50.412Z,27.49
2022-09-12T12:40:05.864Z,27.95
2022-09-12T12:43:07.743Z,28.07
2022-09-12T12:46:07.265Z,27.94
2022-09-12T12:48:50.570Z,27.82
2022-09-12T12:51:37.500Z,27.31
2022-09-12T12:54:28.583Z,27.14
2022-09-12T12:57:07.592Z,26.77
2022-09-12T12:59:37.455Z,26.36
2022-09-12T13:02:07.576Z,25.49
2022-09-12T13:04:39.858Z,25.59
2022-09-12T13:07:12.046Z,25.86
2022-09-12T13:09:48.853Z,26.09
2022-09-12T13:12:24.065Z,26.14
2022-09-12T13:14:57.027Z,25.71
2022-09-12T13:17:31.384Z,25.99
2022-09-12T13:20:28.996Z,26.25
2022-09-12T13:23:00.319Z,25.74
2022-09-12T13:25:32.952Z,25.24
2022-09-12T13:28:09.473Z,25.64
2022-09-12T13:30:40.766Z,26.27
2022-09-12T13:33:19.720Z,27.10
2022-09-12T13:36:19.065Z,27.26
2022-09-12T13:39:02.207Z,27.82
2022-09-12T13:41:48.465Z,27.49
2022-09-12T13:44:21.196Z,26.91
2022-09-12T13:46:51.353Z,27.15
2022-09-12T13:49:26.469Z,27.53
2022-09-12T13:52:03.599Z,27.82
2022-09-12T13:54:38.059Z,27.23
2022-09-12T13:57:08.624Z,27.90
2022-09-12T13:59:42.661Z,27.28
2022-09-12T14:02:23.452Z,27.63
2022-09-12T14:05:07.778Z,27.55
2022-09-12T14:10:50.504Z,28.15
2022-09-12T14:13:23.097Z,27.46
2022-09-12T14:15:58.418Z,27.14
2022-09-12T14:18:30.176Z,27.17
2022-09-12T14:21:04.980Z,26.41
2022-09-12T14:23:37.674Z,26.35
2022-09-12T14:26:13.422Z,26.60
2022-09-12T14:28:44.934Z,26.85
2022-09-12T14:31:26.863Z,27.12
2022-09-12T14:33:57.810Z,27.40
2022-09-12T15:11:09.757Z,25.43
2022-09-12T15:13:42.759Z,25.40
2022-09-12T15:16:14.442Z,25.26
2022-09-12T15:18:43.959Z,25.19
2022-09-12T15:21:16.634Z,25.85
2022-09-12T15:23:48.699Z,25.52
2022-09-12T15:26:23.460Z,25.36
2022-09-12T15:28:53.608Z,24.88
2022-09-12T15:31:28.089Z,24.74
2022-09-12T15:33:59.143Z,24.50
2022-09-12T15:36:29.816Z,24.61
2022-09-12T15:38:59.609Z,24.59
2022-09-12T15:41:36.919Z,24.33
2022-09-12T15:44:07.818Z,24.61
2022-09-12T15:46:37.474Z,24.59
2022-09-12T15:49:07.044Z,24.25
2022-09-12T15:51:36.973Z,24.37
2022-09-12T15:54:07.138Z,24.29
2022-09-12T15:56:39.843Z,24.49
2022-09-12T15:59:09.359Z,24.48
2022-09-12T16:01:41.621Z,24.47
2022-09-12T16:04:23.746Z,24.61
2022-09-12T16:06:53.196Z,24.63
2022-09-12T16:09:23.025Z,24.59
2022-09-12T16:11:55.059Z,24.59
2022-09-12T16:14:24.777Z,24.58
2022-09-12T16:16:59.433Z,24.54
2022-09-12T16:19:29.353Z,24.25
2022-09-12T16:21:58.966Z,24.10
2022-09-12T16:24:28.492Z,23.95
2022-09-12T16:27:01.238Z,23.87
2022-09-12T16:29:31.233Z,23.87
2022-09-12T16:32:00.809Z,23.92
2022-09-12T16:34:33.386Z,23.88
2022-09-12T16:37:02.908Z,23.93
2022-09-12T16:39:32.316Z,23.91
2022-09-12T16:42:04.842Z,23.88
2022-09-12T16:44:34.391Z,23.87
2022-09-12T16:47:03.744Z,23.83
2022-09-12T16:49:33.124Z,23.84
2022-09-12T16:52:02.980Z,23.72
2022-09-12T16:54:32.371Z,23.67
2022-09-12T16:57:05.311Z,23.64
2022-09-12T16:59:34.837Z,23.56
2022-09-12T17:02:04.606Z,23.49
2022-09-12T17:04:34.012Z,23.44
2022-09-12T17:07:03.465Z,23.38
2022-09-12T17:09:32.847Z,23.33
2022-09-12T17:12:06.012Z,23.24
2022-09-12T17:14:35.549Z,23.16
2022-09-12T17:17:05.029Z,23.13
2022-09-12T17:19:34.459Z,23.07
2022-09-12T17:22:03.913Z,22.98
2022-09-12T17:24:33.755Z,22.87
2022-09-12T17:27:06.393Z,22.74
2022-09-12T17:29:37.171Z,22.61
2022-09-12T17:32:06.842Z,22.52
2022-09-12T17:34:36.316Z,22.42
2022-09-12T17:37:05.763Z,22.38
2022-09-12T17:39:35.136Z,22.25
2022-09-12T17:42:08.067Z,22.13
2022-09-12T17:44:38.242Z,22.01
2022-09-12T17:47:08.120Z,21.91
2022-09-12T17:49:37.886Z,21.86
2022-09-12T17:52:07.322Z,21.77
2022-09-12T17:54:36.751Z,21.72
2022-09-12T17:57:11.579Z,21.71
2022-09-12T17:59:40.923Z,21.67
2022-09-12T18:02:14.029Z,21.57
2022-09-12T18:04:45.910Z,21.50
2022-09-12T18:07:15.922Z,21.42
2022-09-12T18:09:47.751Z,21.35
2022-09-12T18:12:20.956Z,21.28
2022-09-12T18:14:50.435Z,21.22
2022-09-12T18:17:20.000Z,21.10
2022-09-12T18:19:53.774Z,21.03
2022-09-12T18:22:23.559Z,20.93
2022-09-12T18:24:53.216Z,20.87
2022-09-12T18:27:25.257Z,20.79
2022-09-12T18:30:10.616Z,20.72
2022-09-12T18:32:44.310Z,20.67
2022-09-12T18:35:14.176Z,20.56
2022-09-12T18:37:43.986Z,20.48
2022-09-12T18:40:14.120Z,20.44
2022-09-12T18:42:46.308Z,20.41
2022-09-12T18:45:15.767Z,20.40
2022-09-12T18:47:45.334Z,20.36
2022-09-12T18:50:14.870Z,20.31
2022-09-12T18:52:44.286Z,20.28
2022-09-12T18:55:13.917Z,20.21
2022-09-12T18:57:45.878Z,20.15
2022-09-12T19:00:16.717Z,20.12
2022-09-12T19:02:46.151Z,20.07
2022-09-12T19:05:16.062Z,20.02
2022-09-12T19:07:45.482Z,20.03
2022-09-12T19:10:15.249Z,19.98
2022-09-12T19:12:47.477Z,19.93
2022-09-12T19:15:16.881Z,19.86
2022-09-12T19:17:46.302Z,19.85
2022-09-12T19:20:15.817Z,19.83
2022-09-12T19:22:45.370Z,19.73
2022-09-12T19:25:14.844Z,19.65
2022-09-12T19:27:46.797Z,19.61
2022-09-12T19:30:16.271Z,19.64
2022-09-12T19:32:47.020Z,19.56
2022-09-12T19:35:16.575Z,19.44
2022-09-12T19:37:45.941Z,19.41
2022-09-12T19:40:15.380Z,19.37
2022-09-12T19:42:47.398Z,19.31
2022-09-12T19:45:16.893Z,19.23
2022-09-12T19:47:46.289Z,19.18
2022-09-12T19:50:16.264Z,19.10
2022-09-12T19:52:45.674Z,19.10
2022-09-12T19:55:15.096Z,19.06
2022-09-12T19:57:47.165Z,19.02
2022-09-12T20:00:17.678Z,18.90
2022-09-12T20:02:52.900Z,18.92
2022-09-12T20:05:23.573Z,18.87
2022-09-12T20:07:55.907Z,18.85
2022-09-12T20:10:25.426Z,18.79
2022-09-12T20:12:57.408Z,18.82
2022-09-12T20:15:28.396Z,18.78
2022-09-12T20:17:58.911Z,18.76
2022-09-12T20:20:29.000Z,18.76
2022-09-12T20:23:06.028Z,18.71
2022-09-12T20:25:35.911Z,18.68
2022-09-12T20:28:08.494Z,18.67
2022-09-12T20:30:38.611Z,18.63
2022-09-12T20:33:11.557Z,18.52
2022-09-12T20:35:41.821Z,18.54
2022-09-12T20:38:11.747Z,18.46
2022-09-12T20:40:41.576Z,18.43
2022-09-12T20:43:22.823Z,18.39
2022-09-12T20:45:52.912Z,18.34
2022-09-12T20:48:26.786Z,18.36
2022-09-12T20:50:56.788Z,18.31
2022-09-12T20:53:28.124Z,18.26
2022-09-12T20:55:59.571Z,18.25
2022-09-12T20:58:40.519Z,18.20
2022-09-12T21:01:14.199Z,18.08
2022-09-12T21:03:45.532Z,17.99
2022-09-12T21:06:20.384Z,17.97
2022-09-12T21:08:51.072Z,17.92
2022-09-12T21:11:21.878Z,17.84
2022-09-12T21:13:55.206Z,17.79
2022-09-12T21:16:27.301Z,17.73
2022-09-12T21:18:59.700Z,17.67
2022-09-12T21:21:30.838Z,17.59
2022-09-12T21:24:02.987Z,17.58
2022-09-12T21:26:33.293Z,17.57
2022-09-12T21:29:08.383Z,17.52
2022-09-12T21:31:37.931Z,17.56
2022-09-12T21:34:07.346Z,17.51
2022-09-12T21:36:37.166Z,17.52
2022-09-12T21:39:06.893Z,17.54
2022-09-12T21:41:36.355Z,17.52
2022-09-12T21:44:11.057Z,17.54
2022-09-12T21:46:40.852Z,17.48
2022-09-12T21:49:11.055Z,17.49
2022-09-12T21:51:41.017Z,17.41
2022-09-12T21:54:10.910Z,17.43
2022-09-12T21:56:40.690Z,17.39
2022-09-12T21:59:13.052Z,17.35
2022-09-12T22:01:43.075Z,17.33
2022-09-12T22:04:12.965Z,17.32
2022-09-12T22:06:42.483Z,17.31
2022-09-12T22:09:12.078Z,17.27
2022-09-12T22:11:42.115Z,17.25
2022-09-12T22:14:17.928Z,17.30
2022-09-12T22:16:48.249Z,17.22
2022-09-12T22:19:18.969Z,17.16
2022-09-12T22:22:01.234Z,17.16
2022-09-12T22:24:34.167Z,17.15
2022-09-12T22:27:06.863Z,17.10
2022-09-12T22:29:39.022Z,17.05
2022-09-12T22:32:09.418Z,17.08
2022-09-12T22:34:39.394Z,17.00
2022-09-12T22:37:11.689Z,16.97
2022-09-12T22:39:41.508Z,16.98
2022-09-12T22:42:11.349Z,16.96
2022-09-12T22:44:43.811Z,16.96
2022-09-12T22:47:13.821Z,16.93
2022-09-12T22:49:43.781Z,16.89
2022-09-12T22:52:13.562Z,16.91
2022-09-12T22:54:43.119Z,16.89
2022-09-12T22:57:14.002Z,16.83
2022-09-12T22:59:46.766Z,16.84
2022-09-12T23:02:16.504Z,16.80
2022-09-12T23:04:46.950Z,16.81
2022-09-12T23:07:16.738Z,16.81
2022-09-12T23:09:48.297Z,16.78
2022-09-12T23:12:18.108Z,16.74
2022-09-12T23:14:50.361Z,16.68
2022-09-12T23:17:20.116Z,16.68
2022-09-12T23:19:49.925Z,16.66
2022-09-12T23:22:19.629Z,16.69
2022-09-12T23:24:49.349Z,16.56
2022-09-12T23:27:19.179Z,16.62
2022-09-12T23:29:54.033Z,16.59
2022-09-12T23:32:24.105Z,16.59
2022-09-12T23:34:53.770Z,16.64
2022-09-12T23:37:23.971Z,16.62
2022-09-12T23:39:53.860Z,16.58
2022-09-12T23:42:23.711Z,16.58
2022-09-12T23:44:56.102Z,16.60
2022-09-12T23:47:26.840Z,16.66
2022-09-12T23:49:59.441Z,16.64
2022-09-12T23:52:29.745Z,16.66
2022-09-12T23:54:59.957Z,16.66
2022-09-12T23:57:29.567Z,16.66
